sensor_id;sensor_type;location;lat;lon;timestamp;pressure;altitude;pressure_sealevel;temperature;humidity
21100;BME280;10708;50.824;4.408;2022-12-15T00:02:41;99716.38;;;-4.17;100.00
21100;BME280;10708;50.824;4.408;2022-12-15T00:08:06;99726.66;;;-4.20;100.00
21100;BME280;10708;50.824;4.408;2022-12-15T00:13:27;99722.28;;;-4.25;100.00
21100;BME280;10708;50.824;4.408;2022-12-15T00:18:47;99731.66;;;-4.32;100.00
21100;BME280;10708;50.824;4.408;2022-12-15T00:24:07;99728.19;;;-4.35;100.00
21100;BME280;10708;50.824;4.408;2022-12-15T00:29:28;99722.97;;;-4.43;100.00
21100;BME280;10708;50.824;4.408;2022-12-15T00:34:48;99722.09;;;-4.45;100.00
21100;BME280;10708;50.824;4.408;2022-12-15T00:40:08;99726.34;;;-4.47;100.00
21100;BME280;10708;50.824;4.408;2022-12-15T00:45:12;99735.72;;;-4.49;100.00
21100;BME280;10708;50.824;4.408;2022-12-15T00:50:15;99738.31;;;-4.49;100.00
21100;BME280;10708;50.824;4.408;2022-12-15T00:55:34;99740.91;;;-4.46;100.00
21100;BME280;10708;50.824;4.408;2022-12-15T01:00:56;99740.06;;;-4.45;100.00
21100;BME280;10708;50.824;4.408;2022-12-15T01:06:18;99741.75;;;-4.47;100.00
21100;BME280;10708;50.824;4.408;2022-12-15T01:11:39;99761.44;;;-4.51;100.00
21100;BME280;10708;50.824;4.408;2022-12-15T01:17:00;99757.94;;;-4.56;100.00
21100;BME280;10708;50.824;4.408;2022-12-15T01:22:20;99759.63;;;-4.58;100.00
21100;BME280;10708;50.824;4.408;2022-12-15T01:27:23;99765.63;;;-4.57;100.00
21100;BME280;10708;50.824;4.408;2022-12-15T01:32:26;99769.94;;;-4.56;100.00
21100;BME280;10708;50.824;4.408;2022-12-15T01:37:29;99777.59;;;-4.58;100.00
21100;BME280;10708;50.824;4.408;2022-12-15T01:42:31;99771.59;;;-4.61;100.00
21100;BME280;10708;50.824;4.408;2022-12-15T01:47:35;99768.13;;;-4.63;100.00
21100;BME280;10708;50.824;4.408;2022-12-15T01:52:37;99778.34;;;-4.66;100.00
21100;BME280;10708;50.824;4.408;2022-12-15T01:57:40;99783.50;;;-4.66;100.00
21100;BME280;10708;50.824;4.408;2022-12-15T02:02:44;99788.63;;;-4.68;100.00
21100;BME280;10708;50.824;4.408;2022-12-15T02:07:46;99794.59;;;-4.70;100.00
21100;BME280;10708;50.824;4.408;2022-12-15T02:12:52;99793.66;;;-4.75;100.00
21100;BME280;10708;50.824;4.408;2022-12-15T02:18:09;99789.38;;;-4.76;100.00
21100;BME280;10708;50.824;4.408;2022-12-15T02:23:33;99797.91;;;-4.77;100.00
21100;BME280;10708;50.824;4.408;2022-12-15T02:28:47;99796.19;;;-4.78;100.00
21100;BME280;10708;50.824;4.408;2022-12-15T02:34:01;99794.50;;;-4.76;100.00
21100;BME280;10708;50.824;4.408;2022-12-15T02:39:06;99800.53;;;-4.74;100.00
21100;BME280;10708;50.824;4.408;2022-12-15T02:44:11;99791.06;;;-4.77;100.00
21100;BME280;10708;50.824;4.408;2022-12-15T02:49:23;99788.47;;;-4.80;100.00
21100;BME280;10708;50.824;4.408;2022-12-15T02:54:55;99803.84;;;-4.83;100.00
21100;BME280;10708;50.824;4.408;2022-12-15T03:00:03;99799.47;;;-4.89;100.00
21100;BME280;10708;50.824;4.408;2022-12-15T03:05:08;99803.69;;;-4.94;100.00
21100;BME280;10708;50.824;4.408;2022-12-15T03:10:12;99809.59;;;-4.98;100.00
21100;BME280;10708;50.824;4.408;2022-12-15T03:15:15;99807.84;;;-5.02;100.00
21100;BME280;10708;50.824;4.408;2022-12-15T03:20:19;99811.31;;;-5.00;100.00
21100;BME280;10708;50.824;4.408;2022-12-15T03:25:21;99813.88;;;-4.98;100.00
21100;BME280;10708;50.824;4.408;2022-12-15T03:30:23;99820.78;;;-4.96;100.00
21100;BME280;10708;50.824;4.408;2022-12-15T03:35:27;99825.97;;;-4.93;100.00
21100;BME280;10708;50.824;4.408;2022-12-15T03:40:30;99823.44;;;-4.90;100.00
21100;BME280;10708;50.824;4.408;2022-12-15T03:45:32;99826.88;;;-4.88;100.00
21100;BME280;10708;50.824;4.408;2022-12-15T03:50:36;99827.72;;;-4.90;100.00
21100;BME280;10708;50.824;4.408;2022-12-15T03:55:38;99837.91;;;-4.95;100.00
21100;BME280;10708;50.824;4.408;2022-12-15T04:00:40;99821.59;;;-5.00;100.00
21100;BME280;10708;50.824;4.408;2022-12-15T04:05:44;99824.88;;;-5.07;100.00
21100;BME280;10708;50.824;4.408;2022-12-15T04:10:46;99836.78;;;-5.13;100.00
21100;BME280;10708;50.824;4.408;2022-12-15T04:15:49;99833.25;;;-5.20;100.00
21100;BME280;10708;50.824;4.408;2022-12-15T04:20:53;99820.34;;;-5.25;100.00
21100;BME280;10708;50.824;4.408;2022-12-15T04:25:55;99830.56;;;-5.26;100.00
21100;BME280;10708;50.824;4.408;2022-12-15T04:31:17;99832.31;;;-5.25;100.00
21100;BME280;10708;50.824;4.408;2022-12-15T04:36:41;99839.19;;;-5.23;100.00
21100;BME280;10708;50.824;4.408;2022-12-15T04:42:02;99840.94;;;-5.18;100.00
21100;BME280;10708;50.824;4.408;2022-12-15T04:47:22;99844.38;;;-5.21;100.00
21100;BME280;10708;50.824;4.408;2022-12-15T04:52:43;99842.63;;;-5.22;100.00
21100;BME280;10708;50.824;4.408;2022-12-15T04:58:04;99851.16;;;-5.23;100.00
21100;BME280;10708;50.824;4.408;2022-12-15T05:03:24;99856.31;;;-5.23;100.00
21100;BME280;10708;50.824;4.408;2022-12-15T05:08:45;99847.78;;;-5.21;100.00
21100;BME280;10708;50.824;4.408;2022-12-15T05:14:05;99856.34;;;-5.20;100.00
21100;BME280;10708;50.824;4.408;2022-12-15T05:19:25;99856.34;;;-5.18;100.00
21100;BME280;10708;50.824;4.408;2022-12-15T05:24:47;99861.53;;;-5.17;100.00
21100;BME280;10708;50.824;4.408;2022-12-15T05:30:08;99876.94;;;-5.15;100.00
21100;BME280;10708;50.824;4.408;2022-12-15T05:35:28;99868.34;;;-5.17;100.00
21100;BME280;10708;50.824;4.408;2022-12-15T05:40:35;99868.34;;;-5.17;100.00
21100;BME280;10708;50.824;4.408;2022-12-15T05:45:38;99870.06;;;-5.18;100.00
21100;BME280;10708;50.824;4.408;2022-12-15T05:50:40;99861.50;;;-5.18;100.00
21100;BME280;10708;50.824;4.408;2022-12-15T05:55:50;99864.91;;;-5.18;100.00
21100;BME280;10708;50.824;4.408;2022-12-15T06:00:52;99878.69;;;-5.14;100.00
21100;BME280;10708;50.824;4.408;2022-12-15T06:05:55;99869.28;;;-5.14;100.00
21100;BME280;10708;50.824;4.408;2022-12-15T06:10:59;99862.41;;;-5.15;100.00
21100;BME280;10708;50.824;4.408;2022-12-15T06:16:02;99870.16;;;-5.13;100.00
21100;BME280;10708;50.824;4.408;2022-12-15T06:21:07;99888.13;;;-5.13;100.00
21100;BME280;10708;50.824;4.408;2022-12-15T06:26:12;99874.38;;;-5.15;100.00
21100;BME280;10708;50.824;4.408;2022-12-15T06:31:17;99880.34;;;-5.16;100.00
21100;BME280;10708;50.824;4.408;2022-12-15T06:36:20;99878.63;;;-5.17;100.00
21100;BME280;10708;50.824;4.408;2022-12-15T06:41:25;99883.75;;;-5.19;100.00
21100;BME280;10708;50.824;4.408;2022-12-15T06:46:29;99893.16;;;-5.19;100.00
21100;BME280;10708;50.824;4.408;2022-12-15T06:51:32;99882.03;;;-5.20;100.00
21100;BME280;10708;50.824;4.408;2022-12-15T06:56:36;99885.47;;;-5.18;100.00
21100;BME280;10708;50.824;4.408;2022-12-15T07:01:38;99888.03;;;-5.19;100.00
21100;BME280;10708;50.824;4.408;2022-12-15T07:06:41;99885.44;;;-5.21;100.00
21100;BME280;10708;50.824;4.408;2022-12-15T07:11:45;99886.38;;;-5.14;100.00
21100;BME280;10708;50.824;4.408;2022-12-15T07:16:50;99881.34;;;-5.10;100.00
21100;BME280;10708;50.824;4.408;2022-12-15T07:21:53;99877.91;;;-5.09;100.00
21100;BME280;10708;50.824;4.408;2022-12-15T07:26:59;99872.81;;;-5.06;100.00
21100;BME280;10708;50.824;4.408;2022-12-15T07:32:01;99883.13;;;-5.04;100.00
21100;BME280;10708;50.824;4.408;2022-12-15T07:37:03;99892.53;;;-5.05;100.00
21100;BME280;10708;50.824;4.408;2022-12-15T07:42:07;99895.13;;;-5.03;100.00
21100;BME280;10708;50.824;4.408;2022-12-15T07:47:10;99896.91;;;-5.01;100.00
21100;BME280;10708;50.824;4.408;2022-12-15T07:52:12;99902.06;;;-4.98;100.00
21100;BME280;10708;50.824;4.408;2022-12-15T07:57:16;99907.34;;;-4.90;100.00
21100;BME280;10708;50.824;4.408;2022-12-15T08:02:18;99917.59;;;-4.89;100.00
21100;BME280;10708;50.824;4.408;2022-12-15T08:07:21;99927.03;;;-4.89;100.00
21100;BME280;10708;50.824;4.408;2022-12-15T08:12:25;99927.88;;;-4.90;100.00
21100;BME280;10708;50.824;4.408;2022-12-15T08:17:28;99933.88;;;-4.88;100.00
21100;BME280;10708;50.824;4.408;2022-12-15T08:22:30;99943.41;;;-4.82;100.00
21100;BME280;10708;50.824;4.408;2022-12-15T08:27:34;99940.03;;;-4.78;100.00
21100;BME280;10708;50.824;4.408;2022-12-15T08:32:37;99941.00;;;-4.72;100.00
21100;BME280;10708;50.824;4.408;2022-12-15T08:37:40;99952.25;;;-4.64;100.00
21100;BME280;10708;50.824;4.408;2022-12-15T08:42:44;99956.75;;;-4.51;100.00
21100;BME280;10708;50.824;4.408;2022-12-15T08:47:46;99978.34;;;-4.39;100.00
21100;BME280;10708;50.824;4.408;2022-12-15T08:52:49;99982.72;;;-4.32;100.00
21100;BME280;10708;50.824;4.408;2022-12-15T08:57:54;99982.88;;;-4.23;100.00
21100;BME280;10708;50.824;4.408;2022-12-15T09:02:57;99979.63;;;-4.10;100.00
21100;BME280;10708;50.824;4.408;2022-12-15T09:08:00;99984.91;;;-4.01;100.00
21100;BME280;10708;50.824;4.408;2022-12-15T09:13:04;99989.34;;;-3.89;100.00
21100;BME280;10708;50.824;4.408;2022-12-15T09:18:07;99996.31;;;-3.81;100.00
21100;BME280;10708;50.824;4.408;2022-12-15T09:23:10;99986.94;;;-3.74;100.00
21100;BME280;10708;50.824;4.408;2022-12-15T09:28:14;99999.81;;;-3.74;100.00
21100;BME280;10708;50.824;4.408;2022-12-15T09:33:17;100009.38;;;-3.64;100.00
21100;BME280;10708;50.824;4.408;2022-12-15T09:38:19;100009.56;;;-3.47;100.00
21100;BME280;10708;50.824;4.408;2022-12-15T09:43:25;100020.03;;;-3.35;100.00
21100;BME280;10708;50.824;4.408;2022-12-15T09:48:37;100018.47;;;-3.22;100.00
21100;BME280;10708;50.824;4.408;2022-12-15T09:53:40;100029.75;;;-3.08;100.00
21100;BME280;10708;50.824;4.408;2022-12-15T09:58:49;100022.16;;;-2.96;100.00
21100;BME280;10708;50.824;4.408;2022-12-15T10:04:03;100024.88;;;-2.84;100.00
21100;BME280;10708;50.824;4.408;2022-12-15T10:09:13;100012.97;;;-2.70;100.00
21100;BME280;10708;50.824;4.408;2022-12-15T10:14:26;100019.13;;;-2.54;100.00
21100;BME280;10708;50.824;4.408;2022-12-15T10:19:37;100020.09;;;-2.37;100.00
21100;BME280;10708;50.824;4.408;2022-12-15T10:24:40;100021.94;;;-2.22;100.00
21100;BME280;10708;50.824;4.408;2022-12-15T10:29:46;100023.78;;;-2.04;100.00
21100;BME280;10708;50.824;4.408;2022-12-15T10:34:53;100026.47;;;-1.86;100.00
21100;BME280;10708;50.824;4.408;2022-12-15T10:39:55;100028.31;;;-1.70;100.00
21100;BME280;10708;50.824;4.408;2022-12-15T10:44:59;100024.03;;;-1.56;100.00
21100;BME280;10708;50.824;4.408;2022-12-15T10:50:16;100028.41;;;-1.39;100.00
21100;BME280;10708;50.824;4.408;2022-12-15T10:55:35;100016.41;;;-1.27;100.00
21100;BME280;10708;50.824;4.408;2022-12-15T11:00:40;100025.09;;;-1.11;100.00
21100;BME280;10708;50.824;4.408;2022-12-15T11:05:50;100019.09;;;-1.01;100.00
21100;BME280;10708;50.824;4.408;2022-12-15T11:10:56;100018.22;;;-0.92;100.00
21100;BME280;10708;50.824;4.408;2022-12-15T11:16:18;100020.84;;;-0.82;100.00
21100;BME280;10708;50.824;4.408;2022-12-15T11:21:24;100020.84;;;-0.74;100.00
21100;BME280;10708;50.824;4.408;2022-12-15T11:26:39;100016.53;;;-0.64;100.00
21100;BME280;10708;50.824;4.408;2022-12-15T11:31:47;100019.13;;;-0.57;100.00
21100;BME280;10708;50.824;4.408;2022-12-15T11:37:05;100020.00;;;-0.53;100.00
21100;BME280;10708;50.824;4.408;2022-12-15T11:42:14;100005.34;;;-0.45;100.00
21100;BME280;10708;50.824;4.408;2022-12-15T11:47:25;99998.44;;;-0.40;100.00
21100;BME280;10708;50.824;4.408;2022-12-15T11:52:53;99985.50;;;-0.35;100.00
21100;BME280;10708;50.824;4.408;2022-12-15T11:58:12;99995.81;;;-0.29;100.00
21100;BME280;10708;50.824;4.408;2022-12-15T12:03:30;99984.63;;;-0.25;100.00
21100;BME280;10708;50.824;4.408;2022-12-15T12:08:56;99984.59;;;-0.19;100.00
21100;BME280;10708;50.824;4.408;2022-12-15T12:14:12;99989.78;;;-0.15;100.00
21100;BME280;10708;50.824;4.408;2022-12-15T12:19:22;99968.19;;;-0.06;100.00
21100;BME280;10708;50.824;4.408;2022-12-15T12:24:28;99973.38;;;-0.02;100.00
21100;BME280;10708;50.824;4.408;2022-12-15T12:29:33;99950.03;;;0.08;100.00
21100;BME280;10708;50.824;4.408;2022-12-15T12:34:50;99950.00;;;0.17;100.00
21100;BME280;10708;50.824;4.408;2022-12-15T12:40:01;99960.31;;;0.33;100.00
21100;BME280;10708;50.824;4.408;2022-12-15T12:45:05;99940.41;;;0.46;100.00
21100;BME280;10708;50.824;4.408;2022-12-15T12:50:15;99935.13;;;0.61;100.00
21100;BME280;10708;50.824;4.408;2022-12-15T12:55:27;99915.09;;;0.88;100.00
21100;BME280;10708;50.824;4.408;2022-12-15T13:00:31;99915.84;;;1.05;100.00
21100;BME280;10708;50.824;4.408;2022-12-15T13:05:36;99911.44;;;1.11;100.00
21100;BME280;10708;50.824;4.408;2022-12-15T13:10:40;99899.25;;;1.24;100.00
21100;BME280;10708;50.824;4.408;2022-12-15T13:15:44;99886.97;;;1.44;100.00
21100;BME280;10708;50.824;4.408;2022-12-15T13:20:52;99870.44;;;1.52;100.00
21100;BME280;10708;50.824;4.408;2022-12-15T13:26:17;99874.66;;;1.62;100.00
21100;BME280;10708;50.824;4.408;2022-12-15T13:31:41;99878.88;;;1.73;100.00
21100;BME280;10708;50.824;4.408;2022-12-15T13:36:49;99871.97;;;1.71;100.00
21100;BME280;10708;50.824;4.408;2022-12-15T13:42:25;99875.38;;;1.79;100.00
21100;BME280;10708;50.824;4.408;2022-12-15T13:47:28;99875.38;;;1.79;100.00
21100;BME280;10708;50.824;4.408;2022-12-15T13:52:37;99870.16;;;1.79;100.00
21100;BME280;10708;50.824;4.408;2022-12-15T13:57:49;99864.94;;;1.80;100.00
21100;BME280;10708;50.824;4.408;2022-12-15T14:03:02;99859.75;;;1.80;100.00
21100;BME280;10708;50.824;4.408;2022-12-15T14:08:11;99853.66;;;1.83;100.00
21100;BME280;10708;50.824;4.408;2022-12-15T14:13:19;99844.25;;;1.76;100.00
21100;BME280;10708;50.824;4.408;2022-12-15T14:18:27;99850.34;;;1.70;100.00
21100;BME280;10708;50.824;4.408;2022-12-15T14:23:40;99843.41;;;1.72;100.00
21100;BME280;10708;50.824;4.408;2022-12-15T14:28:44;99839.06;;;1.73;100.00
21100;BME280;10708;50.824;4.408;2022-12-15T14:33:49;99831.41;;;1.61;100.00
21100;BME280;10708;50.824;4.408;2022-12-15T14:38:57;99833.19;;;1.59;100.00
21100;BME280;10708;50.824;4.408;2022-12-15T14:44:04;99827.09;;;1.61;100.00
21100;BME280;10708;50.824;4.408;2022-12-15T14:49:08;99825.47;;;1.53;100.00
21100;BME280;10708;50.824;4.408;2022-12-15T14:54:27;99821.19;;;1.48;100.00
21100;BME280;10708;50.824;4.408;2022-12-15T14:59:32;99821.25;;;1.41;100.00
21100;BME280;10708;50.824;4.408;2022-12-15T15:04:35;99834.31;;;1.33;100.00
21100;BME280;10708;50.824;4.408;2022-12-15T15:09:40;99837.88;;;1.22;100.00
21100;BME280;10708;50.824;4.408;2022-12-15T15:14:46;99841.47;;;1.08;100.00
21100;BME280;10708;50.824;4.408;2022-12-15T15:19:52;99845.81;;;1.03;100.00
21100;BME280;10708;50.824;4.408;2022-12-15T15:25:00;99858.94;;;0.87;100.00
21100;BME280;10708;50.824;4.408;2022-12-15T15:30:18;99860.81;;;0.69;100.00
21100;BME280;10708;50.824;4.408;2022-12-15T15:35:23;99870.38;;;0.58;100.00
21100;BME280;10708;50.824;4.408;2022-12-15T15:40:29;99869.59;;;0.43;100.00
21100;BME280;10708;50.824;4.408;2022-12-15T15:45:32;99866.19;;;0.34;100.00
21100;BME280;10708;50.824;4.408;2022-12-15T15:50:35;99874.88;;;0.29;100.00
21100;BME280;10708;50.824;4.408;2022-12-15T15:55:41;99866.34;;;0.09;100.00
21100;BME280;10708;50.824;4.408;2022-12-15T16:00:57;99875.88;;;-0.09;100.00
21100;BME280;10708;50.824;4.408;2022-12-15T16:06:01;99893.19;;;-0.26;100.00
21100;BME280;10708;50.824;4.408;2022-12-15T16:11:08;99888.06;;;-0.41;100.00
21100;BME280;10708;50.824;4.408;2022-12-15T16:16:16;99904.47;;;-0.51;100.00
21100;BME280;10708;50.824;4.408;2022-12-15T16:21:22;99905.31;;;-0.54;100.00
21100;BME280;10708;50.824;4.408;2022-12-15T16:26:30;99895.84;;;-0.64;100.00
21100;BME280;10708;50.824;4.408;2022-12-15T16:31:45;99901.88;;;-0.77;100.00
21100;BME280;10708;50.824;4.408;2022-12-15T16:36:48;99910.50;;;-0.89;100.00
21100;BME280;10708;50.824;4.408;2022-12-15T16:41:54;99914.84;;;-1.00;100.00
21100;BME280;10708;50.824;4.408;2022-12-15T16:46:57;99919.13;;;-1.02;100.00
21100;BME280;10708;50.824;4.408;2022-12-15T16:52:00;99927.75;;;-0.94;100.00
21100;BME280;10708;50.824;4.408;2022-12-15T16:57:07;99927.75;;;-0.86;100.00
21100;BME280;10708;50.824;4.408;2022-12-15T17:02:23;99932.94;;;-0.80;100.00
21100;BME280;10708;50.824;4.408;2022-12-15T17:07:26;99934.66;;;-0.73;100.00
21100;BME280;10708;50.824;4.408;2022-12-15T17:18:12;99950.16;;;-0.46;100.00
21100;BME280;10708;50.824;4.408;2022-12-15T17:23:20;99968.25;;;-0.33;100.00
21100;BME280;10708;50.824;4.408;2022-12-15T17:28:26;99963.06;;;-0.24;100.00
21100;BME280;10708;50.824;4.408;2022-12-15T17:33:33;99969.09;;;-0.15;100.00
21100;BME280;10708;50.824;4.408;2022-12-15T17:38:35;99974.25;;;-0.10;100.00
21100;BME280;10708;50.824;4.408;2022-12-15T17:43:39;99963.88;;;-0.04;100.00
21100;BME280;10708;50.824;4.408;2022-12-15T17:48:41;99978.56;;;-0.02;100.00
21100;BME280;10708;50.824;4.408;2022-12-15T17:53:45;99983.72;;;-0.03;100.00
21100;BME280;10708;50.824;4.408;2022-12-15T17:58:50;99978.56;;;-0.11;100.00
21100;BME280;10708;50.824;4.408;2022-12-15T18:03:53;99981.16;;;-0.20;100.00
21100;BME280;10708;50.824;4.408;2022-12-15T18:08:56;99980.31;;;-0.28;100.00
21100;BME280;10708;50.824;4.408;2022-12-15T18:13:59;99976.88;;;-0.38;100.00
21100;BME280;10708;50.824;4.408;2022-12-15T18:19:01;99984.66;;;-0.44;100.00
21100;BME280;10708;50.824;4.408;2022-12-15T18:24:09;99997.56;;;-0.56;100.00
21100;BME280;10708;50.824;4.408;2022-12-15T18:29:15;99999.28;;;-0.65;100.00
21100;BME280;10708;50.824;4.408;2022-12-15T18:34:19;100005.34;;;-0.71;100.00
21100;BME280;10708;50.824;4.408;2022-12-15T18:39:22;100012.22;;;-0.78;100.00
21100;BME280;10708;50.824;4.408;2022-12-15T18:44:30;100019.09;;;-0.87;100.00
21100;BME280;10708;50.824;4.408;2022-12-15T18:49:33;100003.56;;;-0.98;100.00
21100;BME280;10708;50.824;4.408;2022-12-15T18:54:36;100006.13;;;-1.08;100.00
21100;BME280;10708;50.824;4.408;2022-12-15T18:59:40;100009.56;;;-1.06;100.00
21100;BME280;10708;50.824;4.408;2022-12-15T19:04:43;100007.81;;;-1.24;100.00
21100;BME280;10708;50.824;4.408;2022-12-15T19:09:45;100020.72;;;-1.32;100.00
21100;BME280;10708;50.824;4.408;2022-12-15T19:14:50;100020.66;;;-1.39;100.00
21100;BME280;10708;50.824;4.408;2022-12-15T19:19:53;100015.47;;;-1.47;100.00
21100;BME280;10708;50.824;4.408;2022-12-15T19:25:17;100012.03;;;-1.48;100.00
21100;BME280;10708;50.824;4.408;2022-12-15T19:30:23;100011.16;;;-1.50;100.00
21100;BME280;10708;50.824;4.408;2022-12-15T19:40:43;100002.50;;;-1.62;100.00
21100;BME280;10708;50.824;4.408;2022-12-15T19:45:54;100019.72;;;-1.61;100.00
21100;BME280;10708;50.824;4.408;2022-12-15T19:50:57;100010.25;;;-1.62;100.00
21100;BME280;10708;50.824;4.408;2022-12-15T19:56:00;100008.50;;;-1.65;100.00
21100;BME280;10708;50.824;4.408;2022-12-15T20:01:12;99999.91;;;-1.67;100.00
21100;BME280;10708;50.824;4.408;2022-12-15T20:06:17;100014.50;;;-1.72;100.00
21100;BME280;10708;50.824;4.408;2022-12-15T20:11:22;100010.19;;;-1.76;100.00
21100;BME280;10708;50.824;4.408;2022-12-15T20:16:26;100003.25;;;-1.83;100.00
21100;BME280;10708;50.824;4.408;2022-12-15T20:21:32;99999.78;;;-1.91;100.00
21100;BME280;10708;50.824;4.408;2022-12-15T20:26:36;99992.84;;;-1.97;100.00
21100;BME280;10708;50.824;4.408;2022-12-15T20:31:40;99973.94;;;-2.00;100.00
21100;BME280;10708;50.824;4.408;2022-12-15T20:36:43;99977.34;;;-1.98;100.00
21100;BME280;10708;50.824;4.408;2022-12-15T20:41:47;99974.91;;;-1.69;100.00
21100;BME280;10708;50.824;4.408;2022-12-15T20:46:51;99969.81;;;-1.50;100.00
21100;BME280;10708;50.824;4.408;2022-12-15T20:51:54;99959.56;;;-1.33;100.00
21100;BME280;10708;50.824;4.408;2022-12-15T20:56:57;99960.44;;;-1.25;100.00
21100;BME280;10708;50.824;4.408;2022-12-15T21:02:01;99961.31;;;-1.07;100.00
21100;BME280;10708;50.824;4.408;2022-12-15T21:07:08;99949.28;;;-1.07;100.00
21100;BME280;10708;50.824;4.408;2022-12-15T21:12:16;99955.28;;;-1.14;100.00
21100;BME280;10708;50.824;4.408;2022-12-15T21:17:22;99957.84;;;-1.19;100.00
21100;BME280;10708;50.824;4.408;2022-12-15T21:27:34;99952.63;;;-1.54;100.00
21100;BME280;10708;50.824;4.408;2022-12-15T21:32:40;99965.44;;;-1.76;100.00
21100;BME280;10708;50.824;4.408;2022-12-15T21:37:44;99972.22;;;-1.95;100.00
21100;BME280;10708;50.824;4.408;2022-12-15T21:42:48;99973.03;;;-2.10;100.00
21100;BME280;10708;50.824;4.408;2022-12-15T21:47:52;99983.25;;;-2.19;100.00
21100;BME280;10708;50.824;4.408;2022-12-15T21:53:12;99986.63;;;-2.29;100.00
21100;BME280;10708;50.824;4.408;2022-12-15T21:58:19;99991.78;;;-2.34;100.00
21100;BME280;10708;50.824;4.408;2022-12-15T22:03:23;99989.13;;;-2.44;100.00
21100;BME280;10708;50.824;4.408;2022-12-15T22:08:27;100004.47;;;-2.56;100.00
21100;BME280;10708;50.824;4.408;2022-12-15T22:13:30;100006.13;;;-2.65;100.00
21100;BME280;10708;50.824;4.408;2022-12-15T22:18:34;100014.69;;;-2.70;100.00
21100;BME280;10708;50.824;4.408;2022-12-15T22:23:37;100009.47;;;-2.75;100.00
21100;BME280;10708;50.824;4.408;2022-12-15T22:28:40;100006.88;;;-2.78;100.00
21100;BME280;10708;50.824;4.408;2022-12-15T22:33:45;100012.88;;;-2.80;100.00
21100;BME280;10708;50.824;4.408;2022-12-15T22:38:48;100022.31;;;-2.79;100.00
21100;BME280;10708;50.824;4.408;2022-12-15T22:43:51;100018.03;;;-2.82;100.00
21100;BME280;10708;50.824;4.408;2022-12-15T22:48:55;100021.41;;;-2.86;100.00
21100;BME280;10708;50.824;4.408;2022-12-15T22:53:58;100035.97;;;-2.89;100.00
21100;BME280;10708;50.824;4.408;2022-12-15T22:59:03;100034.28;;;-2.87;100.00
21100;BME280;10708;50.824;4.408;2022-12-15T23:04:08;100035.13;;;-2.88;100.00
21100;BME280;10708;50.824;4.408;2022-12-15T23:09:11;100040.28;;;-2.87;100.00
21100;BME280;10708;50.824;4.408;2022-12-15T23:14:16;100041.19;;;-2.83;100.00
21100;BME280;10708;50.824;4.408;2022-12-15T23:19:20;100039.47;;;-2.84;100.00
21100;BME280;10708;50.824;4.408;2022-12-15T23:24:24;100037.72;;;-2.85;100.00
21100;BME280;10708;50.824;4.408;2022-12-15T23:29:28;100036.91;;;-2.83;100.00
21100;BME280;10708;50.824;4.408;2022-12-15T23:34:31;100031.78;;;-2.77;100.00
21100;BME280;10708;50.824;4.408;2022-12-15T23:39:34;100037.03;;;-2.71;100.00
21100;BME280;10708;50.824;4.408;2022-12-15T23:44:36;100034.44;;;-2.68;100.00
21100;BME280;10708;50.824;4.408;2022-12-15T23:49:40;100041.38;;;-2.64;100.00
21100;BME280;10708;50.824;4.408;2022-12-15T23:54:43;100030.16;;;-2.67;100.00
21100;BME280;10708;50.824;4.408;2022-12-15T23:59:45;100037.91;;;-2.67;100.00
